createdAt,value
2023-02-17T00:01:14.237Z,64.73
2023-02-17T00:03:42.373Z,61.57
2023-02-17T00:06:12.111Z,59.13
2023-02-17T00:08:40.074Z,61.73
2023-02-17T00:11:09.680Z,59.73
2023-02-17T00:13:37.679Z,60.83
2023-02-17T00:16:08.865Z,60.73
2023-02-17T00:18:37.417Z,59.53
2023-02-17T00:21:16.469Z,60.13
2023-02-17T00:23:44.835Z,56.57
2023-02-17T00:26:14.914Z,56.97
2023-02-17T00:28:44.373Z,54.73
2023-02-17T00:31:15.725Z,58.13
2023-02-17T00:33:43.820Z,55.90
2023-02-17T00:36:14.223Z,54.33
2023-02-17T00:38:42.250Z,50.60
2023-02-17T00:41:10.386Z,54.63
2023-02-17T00:43:39.827Z,50.90
2023-02-17T00:46:08.428Z,52.17
2023-02-17T00:48:36.790Z,48.20
2023-02-17T00:51:06.269Z,50.53
2023-02-17T00:53:36.424Z,46.37
2023-02-17T00:56:05.590Z,46.90
2023-02-17T00:58:34.030Z,48.10
2023-02-17T01:01:04.184Z,46.57
2023-02-17T01:03:32.769Z,47.73
2023-02-17T01:06:01.121Z,43.33
2023-02-17T01:08:29.430Z,44.23
2023-02-17T01:10:58.498Z,43.57
2023-02-17T01:13:26.560Z,41.17
2023-02-17T01:15:56.513Z,43.57
2023-02-17T01:18:26.002Z,43.33
2023-02-17T01:20:54.318Z,42.80
2023-02-17T01:23:22.579Z,44.33
2023-02-17T01:25:51.594Z,42.23
2023-02-17T01:28:23.083Z,42.17
2023-02-17T01:30:51.160Z,39.40
2023-02-17T01:33:19.167Z,41.57
2023-02-17T01:35:48.550Z,39.03
2023-02-17T01:38:16.584Z,39.57
2023-02-17T01:40:48.737Z,40.10
2023-02-17T01:43:18.225Z,39.80
2023-02-17T01:45:49.860Z,37.27
2023-02-17T01:48:22.779Z,35.53
2023-02-17T01:50:56.500Z,36.73
2023-02-17T01:53:30.667Z,34.87
2023-02-17T01:55:59.095Z,34.57
2023-02-17T01:58:29.292Z,34.80
2023-02-17T02:00:59.256Z,34.27
2023-02-17T02:03:28.221Z,32.53
2023-02-17T02:05:58.159Z,32.00
2023-02-17T02:08:31.736Z,30.00
2023-02-17T02:10:59.744Z,32.30
2023-02-17T02:13:28.420Z,27.73
2023-02-17T02:16:08.129Z,29.13
2023-02-17T02:18:50.656Z,28.00
2023-02-17T02:21:54.825Z,26.13
2023-02-17T02:24:29.480Z,25.87
2023-02-17T02:27:34.050Z,26.93
2023-02-17T02:30:19.190Z,26.53
2023-02-17T02:33:02.769Z,26.30
2023-02-17T02:35:43.561Z,24.60
2023-02-17T02:38:16.171Z,25.60
2023-02-17T02:40:48.208Z,24.10
2023-02-17T02:43:16.946Z,23.83
2023-02-17T02:45:45.062Z,23.93
2023-02-17T02:48:14.535Z,24.20
2023-02-17T02:50:56.630Z,22.43
2023-02-17T02:53:49.935Z,22.00
2023-02-17T02:56:28.354Z,21.93
2023-02-17T02:59:06.960Z,23.30
2023-02-17T03:01:42.372Z,22.17
2023-02-17T03:04:16.200Z,21.07
2023-02-17T03:06:49.140Z,20.73
2023-02-17T03:09:22.488Z,20.40
2023-02-17T03:11:50.775Z,20.10
2023-02-17T03:14:21.442Z,20.50
2023-02-17T03:16:50.715Z,20.93
2023-02-17T03:19:24.105Z,20.93
2023-02-17T03:21:58.086Z,20.60
2023-02-17T03:24:26.250Z,19.77
2023-02-17T03:26:54.294Z,20.00
2023-02-17T03:29:22.312Z,20.87
2023-02-17T03:31:50.422Z,20.00
2023-02-17T03:34:19.885Z,21.30
2023-02-17T03:36:48.686Z,20.27
2023-02-17T03:39:16.854Z,20.57
2023-02-17T03:41:44.878Z,20.40
2023-02-17T03:44:12.952Z,19.67
2023-02-17T03:46:41.176Z,18.57
2023-02-17T03:49:09.238Z,17.47
2023-02-17T03:51:38.615Z,19.43
2023-02-17T03:54:06.710Z,18.63
2023-02-17T03:56:34.737Z,18.00
2023-02-17T03:59:02.771Z,19.00
2023-02-17T04:01:31.211Z,18.43
2023-02-17T04:03:59.255Z,17.20
2023-02-17T04:06:27.294Z,18.80
2023-02-17T04:08:56.639Z,19.77
2023-02-17T04:11:24.664Z,19.60
2023-02-17T04:13:52.688Z,19.23
2023-02-17T04:16:20.881Z,19.93
2023-02-17T04:18:48.889Z,20.53
2023-02-17T04:21:16.972Z,19.63
2023-02-17T04:23:46.049Z,19.60
2023-02-17T04:26:15.395Z,20.37
2023-02-17T04:28:44.941Z,20.00
2023-02-17T04:31:13.116Z,20.00
2023-02-17T04:33:41.234Z,20.10
2023-02-17T04:36:09.562Z,19.73
2023-02-17T04:38:37.564Z,20.57
2023-02-17T04:41:06.218Z,19.20
2023-02-17T04:43:35.588Z,21.07
2023-02-17T04:46:03.849Z,20.83
2023-02-17T04:48:32.148Z,23.20
2023-02-17T04:51:00.173Z,22.10
2023-02-17T04:53:28.704Z,20.27
2023-02-17T04:55:56.713Z,22.80
2023-02-17T04:58:24.757Z,21.97
2023-02-17T05:00:54.105Z,22.17
2023-02-17T05:03:22.148Z,21.40
2023-02-17T05:05:51.206Z,22.30
2023-02-17T05:08:19.229Z,22.27
2023-02-17T05:10:47.227Z,23.37
2023-02-17T05:13:15.203Z,23.43
2023-02-17T05:15:44.525Z,23.03
2023-02-17T05:18:14.479Z,23.67
2023-02-17T05:20:42.826Z,24.57
2023-02-17T05:23:10.929Z,23.90
2023-02-17T05:25:40.827Z,23.87
2023-02-17T05:28:08.918Z,24.53
2023-02-17T05:30:36.941Z,23.83
2023-02-17T05:33:05.068Z,24.53
2023-02-17T05:35:35.423Z,25.07
2023-02-17T05:38:03.472Z,27.07
2023-02-17T05:40:31.526Z,25.00
2023-02-17T05:42:59.602Z,26.30
2023-02-17T05:45:27.578Z,24.87
2023-02-17T05:47:55.584Z,25.50
2023-02-17T05:50:23.622Z,24.90
2023-02-17T05:52:53.099Z,25.80
2023-02-17T05:55:22.167Z,25.40
2023-02-17T05:57:50.202Z,27.00
2023-02-17T06:00:18.708Z,28.87
2023-02-17T06:02:46.758Z,27.40
2023-02-17T06:05:15.105Z,29.60
2023-02-17T06:07:43.419Z,27.70
2023-02-17T06:10:13.104Z,28.10
2023-02-17T06:12:41.510Z,27.50
2023-02-17T06:15:09.863Z,27.90
2023-02-17T06:17:37.909Z,27.97
2023-02-17T06:20:07.346Z,29.80
2023-02-17T06:22:35.697Z,27.40
2023-02-17T06:25:03.703Z,28.67
2023-02-17T06:27:33.107Z,28.37
2023-02-17T06:30:01.211Z,28.47
2023-02-17T06:32:29.444Z,27.90
2023-02-17T06:34:57.501Z,27.77
2023-02-17T06:37:25.496Z,27.43
2023-02-17T06:39:53.478Z,28.00
2023-02-17T06:42:21.588Z,27.50
2023-02-17T06:44:50.963Z,26.33
2023-02-17T06:47:19.009Z,26.83
2023-02-17T06:49:47.004Z,28.40
2023-02-17T06:52:15.048Z,26.93
2023-02-17T06:54:43.429Z,27.97
2023-02-17T06:57:11.453Z,27.37
2023-02-17T06:59:39.518Z,28.67
2023-02-17T07:02:12.317Z,28.60
2023-02-17T07:04:40.454Z,27.10
2023-02-17T07:07:09.121Z,27.53
2023-02-17T07:09:38.532Z,27.77
2023-02-17T07:12:07.415Z,27.30
2023-02-17T07:14:36.542Z,29.07
2023-02-17T07:17:04.621Z,25.27
2023-02-17T07:19:34.015Z,26.63
2023-02-17T07:22:02.475Z,26.37
2023-02-17T07:24:30.454Z,27.63
2023-02-17T07:26:58.467Z,28.67
2023-02-17T07:29:26.472Z,26.77
2023-02-17T07:31:54.524Z,27.47
2023-02-17T07:34:22.608Z,26.37
2023-02-17T07:36:51.962Z,24.70
2023-02-17T07:39:19.992Z,24.50
2023-02-17T07:41:48.030Z,21.17
2023-02-17T07:44:19.417Z,21.37
2023-02-17T07:46:47.458Z,21.60
2023-02-17T07:49:15.437Z,22.10
2023-02-17T07:51:43.442Z,23.27
2023-02-17T07:54:13.328Z,23.73
2023-02-17T07:56:44.898Z,21.80
2023-02-17T07:59:13.961Z,20.67
2023-02-17T08:01:42.476Z,19.83
2023-02-17T08:04:10.555Z,18.77
2023-02-17T08:06:40.902Z,18.00
2023-02-17T08:09:28.169Z,17.40
2023-02-17T08:12:14.912Z,17.90
2023-02-17T08:14:42.970Z,16.47
2023-02-17T08:17:11.034Z,17.27
2023-02-17T08:19:48.141Z,17.13
2023-02-17T08:22:17.271Z,17.57
2023-02-17T08:24:45.602Z,16.07
2023-02-17T08:27:15.961Z,16.57
2023-02-17T08:29:44.361Z,17.37
2023-02-17T08:32:12.746Z,16.07
2023-02-17T08:34:40.838Z,15.57
2023-02-17T08:37:09.979Z,17.60
2023-02-17T08:39:38.655Z,16.43
2023-02-17T08:42:07.150Z,16.87
2023-02-17T08:44:37.694Z,15.70
2023-02-17T08:47:06.917Z,15.97
2023-02-17T08:49:35.815Z,16.40
2023-02-17T08:52:04.181Z,15.90
2023-02-17T08:54:32.384Z,14.37
2023-02-17T08:57:00.564Z,15.23
2023-02-17T08:59:28.592Z,16.03
2023-02-17T09:01:58.426Z,15.63
2023-02-17T09:04:26.554Z,15.47
2023-02-17T09:06:56.594Z,15.93
2023-02-17T09:09:27.700Z,15.93
2023-02-17T09:11:57.298Z,14.23
2023-02-17T09:14:25.712Z,15.30
2023-02-17T09:16:55.143Z,16.10
2023-02-17T09:19:24.700Z,15.83
2023-02-17T09:21:52.814Z,14.77
2023-02-17T09:24:20.833Z,16.23
2023-02-17T09:26:48.893Z,16.93
2023-02-17T09:29:16.948Z,16.03
2023-02-17T09:31:46.054Z,16.93
2023-02-17T09:34:15.166Z,16.57
2023-02-17T09:36:44.658Z,15.60
2023-02-17T09:39:14.131Z,16.23
2023-02-17T09:41:47.182Z,16.10
2023-02-17T09:44:21.683Z,17.30
2023-02-17T09:47:02.166Z,16.93
2023-02-17T09:49:37.964Z,16.73
2023-02-17T09:52:14.203Z,17.77
2023-02-17T09:54:50.647Z,16.80
2023-02-17T09:57:22.644Z,17.30
2023-02-17T09:59:56.192Z,18.37
2023-02-17T10:02:31.423Z,18.43
2023-02-17T10:05:04.006Z,19.97
2023-02-17T10:07:37.875Z,20.90
2023-02-17T10:10:09.790Z,20.67
2023-02-17T10:12:41.286Z,20.50
2023-02-17T10:15:16.076Z,20.27
2023-02-17T10:17:50.051Z,20.90
2023-02-17T10:20:21.536Z,21.57
2023-02-17T10:22:54.647Z,21.13
2023-02-17T10:25:34.710Z,21.50
2023-02-17T10:28:09.842Z,22.10
2023-02-17T10:30:45.882Z,21.97
2023-02-17T10:33:22.541Z,22.00
2023-02-17T10:35:52.779Z,22.37
2023-02-17T10:38:39.295Z,20.90
2023-02-17T10:41:11.856Z,21.13
2023-02-17T10:43:39.892Z,22.53
2023-02-17T10:46:09.204Z,21.57
2023-02-17T10:48:41.727Z,20.37
2023-02-17T10:51:15.689Z,20.00
2023-02-17T10:53:49.111Z,20.80
2023-02-17T10:56:21.957Z,20.77
2023-02-17T10:58:56.192Z,21.57
2023-02-17T11:01:24.279Z,21.70
2023-02-17T11:04:01.986Z,21.27
2023-02-17T11:06:31.429Z,21.73
2023-02-17T11:09:04.229Z,23.50
2023-02-17T11:11:35.598Z,24.13
2023-02-17T11:14:12.427Z,22.33
2023-02-17T11:16:43.137Z,24.43
2023-02-17T11:19:23.280Z,22.70
2023-02-17T11:21:52.819Z,23.33
2023-02-17T11:24:22.260Z,23.80
2023-02-17T11:26:58.268Z,22.47
2023-02-17T11:29:27.126Z,21.97
2023-02-17T11:31:56.872Z,23.43
2023-02-17T11:34:28.284Z,23.70
2023-02-17T11:37:02.353Z,23.33
2023-02-17T11:39:31.758Z,22.67
2023-02-17T11:41:59.780Z,21.93
2023-02-17T11:44:29.278Z,23.30
2023-02-17T11:47:06.961Z,22.50
2023-02-17T11:49:55.409Z,20.07
2023-02-17T11:52:39.524Z,19.87
2023-02-17T11:55:19.898Z,20.20
2023-02-17T11:58:06.829Z,20.23
2023-02-17T12:00:42.761Z,18.93
2023-02-17T12:03:29.809Z,18.70
2023-02-17T12:06:07.923Z,17.10
2023-02-17T12:08:48.511Z,16.53
2023-02-17T12:11:27.499Z,18.67
2023-02-17T12:14:10.866Z,16.70
2023-02-17T12:16:46.856Z,16.07
2023-02-17T12:19:46.280Z,15.37
2023-02-17T12:22:19.040Z,16.30
2023-02-17T12:25:03.988Z,14.63
2023-02-17T12:27:50.720Z,14.47
2023-02-17T12:30:33.582Z,14.10
2023-02-17T12:33:26.122Z,12.87
2023-02-17T12:35:57.612Z,11.13
2023-02-17T12:38:30.587Z,12.60
2023-02-17T12:41:06.595Z,11.93
2023-02-17T12:43:39.948Z,11.60
2023-02-17T12:46:12.936Z,11.83
2023-02-17T12:48:48.657Z,11.47
2023-02-17T12:51:23.452Z,10.50
2023-02-17T12:53:57.327Z,10.73
2023-02-17T12:56:51.511Z,10.83
2023-02-17T12:59:24.236Z,11.20
2023-02-17T13:01:57.404Z,11.53
2023-02-17T13:04:27.155Z,11.13
2023-02-17T13:07:03.739Z,12.10
2023-02-17T13:09:36.445Z,10.90
2023-02-17T13:12:40.495Z,10.30
2023-02-17T13:15:29.672Z,11.30
2023-02-17T13:18:01.272Z,10.20
2023-02-17T13:20:45.909Z,9.40
2023-02-17T13:23:26.841Z,9.47
2023-02-17T13:26:30.261Z,9.60
2023-02-17T13:29:35.626Z,9.80
2023-02-17T13:32:06.974Z,9.00
2023-02-17T13:34:37.897Z,9.10
2023-02-17T13:37:19.429Z,9.17
2023-02-17T13:39:47.714Z,8.63
2023-02-17T13:42:37.973Z,8.63
2023-02-17T13:45:21.106Z,8.10
2023-02-17T13:47:52.729Z,7.87
2023-02-17T13:50:31.690Z,7.30
2023-02-17T13:53:00.593Z,7.27
2023-02-17T13:55:28.934Z,7.03
2023-02-17T13:57:58.764Z,6.13
2023-02-17T14:00:29.412Z,6.23
2023-02-17T14:03:02.899Z,5.80
2023-02-17T14:05:41.868Z,5.70
2023-02-17T14:08:15.537Z,5.47
2023-02-17T14:10:43.819Z,4.70
2023-02-17T14:13:12.955Z,4.70
2023-02-17T14:15:52.381Z,4.83
2023-02-17T14:18:31.611Z,4.77
2023-02-17T14:21:06.352Z,4.27
2023-02-17T14:23:45.707Z,4.03
2023-02-17T14:26:16.484Z,3.47
2023-02-17T14:28:55.094Z,3.33
2023-02-17T14:31:24.892Z,2.80
2023-02-17T14:33:59.888Z,3.17
2023-02-17T14:36:31.369Z,2.50
2023-02-17T14:39:00.220Z,2.20
2023-02-17T14:41:29.032Z,2.37
2023-02-17T14:43:57.310Z,2.90
2023-02-17T14:46:25.642Z,2.00
2023-02-17T14:48:54.368Z,2.40
2023-02-17T14:51:26.212Z,2.87
2023-02-17T14:53:54.291Z,2.43
2023-02-17T14:56:26.299Z,2.70
2023-02-17T14:58:54.521Z,2.83
2023-02-17T15:01:24.900Z,2.23
2023-02-17T15:03:54.356Z,2.50
2023-02-17T15:06:30.051Z,3.23
2023-02-17T15:08:59.580Z,2.87
2023-02-17T15:11:31.446Z,3.17
2023-02-17T15:13:59.472Z,3.17
2023-02-17T15:16:27.836Z,3.00
2023-02-17T15:18:55.972Z,3.80
2023-02-17T15:21:29.060Z,3.20
2023-02-17T15:23:58.219Z,3.77
2023-02-17T15:26:26.722Z,3.40
2023-02-17T15:28:57.083Z,3.13
2023-02-17T15:31:25.658Z,3.60
2023-02-17T15:33:58.008Z,3.30
2023-02-17T15:36:28.935Z,3.97
2023-02-17T15:38:56.952Z,4.00
2023-02-17T15:41:26.918Z,3.40
2023-02-17T15:43:57.200Z,3.53
2023-02-17T15:46:33.058Z,4.33
2023-02-17T15:49:01.339Z,3.83
2023-02-17T15:51:30.716Z,4.20
2023-02-17T15:53:58.984Z,3.97
2023-02-17T15:56:32.324Z,4.00
2023-02-17T15:59:04.293Z,3.37
2023-02-17T16:01:34.556Z,4.70
2023-02-17T16:04:03.029Z,3.90
2023-02-17T16:06:32.352Z,4.10
2023-02-17T16:09:00.340Z,3.73
2023-02-17T16:11:29.180Z,3.90
2023-02-17T16:13:57.828Z,3.90
2023-02-17T16:16:32.271Z,3.50
2023-02-17T16:19:00.809Z,3.77
2023-02-17T16:21:29.205Z,3.90
2023-02-17T16:24:00.340Z,4.13
2023-02-17T16:26:33.528Z,3.27
2023-02-17T16:29:03.248Z,3.93
2023-02-17T16:31:35.752Z,3.80
2023-02-17T16:34:03.960Z,3.27
2023-02-17T16:36:35.830Z,4.67
2023-02-17T16:39:12.914Z,4.30
2023-02-17T16:41:41.175Z,3.97
2023-02-17T16:44:09.416Z,4.23
2023-02-17T16:46:38.469Z,4.10
2023-02-17T16:49:24.174Z,4.10
2023-02-17T16:51:52.599Z,3.37
2023-02-17T16:54:22.065Z,3.57
2023-02-17T16:56:52.562Z,4.03
2023-02-17T16:59:22.512Z,3.50
2023-02-17T17:01:51.007Z,3.73
2023-02-17T17:04:19.060Z,3.20
2023-02-17T17:06:49.407Z,4.13
2023-02-17T17:09:18.839Z,3.57
2023-02-17T17:11:48.470Z,4.10
2023-02-17T17:14:16.683Z,3.50
2023-02-17T17:16:49.989Z,3.93
2023-02-17T17:19:18.218Z,3.90
2023-02-17T17:21:46.280Z,3.10
2023-02-17T17:24:14.291Z,3.40
2023-02-17T17:26:45.135Z,3.43
2023-02-17T17:29:17.039Z,3.97
2023-02-17T17:31:45.334Z,4.13
2023-02-17T17:34:13.467Z,4.37
2023-02-17T17:36:43.649Z,3.40
2023-02-17T17:39:16.153Z,4.07
2023-02-17T17:41:44.362Z,3.93
2023-02-17T17:44:14.101Z,3.90
2023-02-17T17:46:42.303Z,3.80
2023-02-17T17:49:13.141Z,4.37
2023-02-17T17:51:41.415Z,4.23
2023-02-17T17:54:09.679Z,4.00
2023-02-17T17:56:39.169Z,4.00
2023-02-17T17:59:07.613Z,3.57
2023-02-17T18:01:37.199Z,4.33
2023-02-17T18:04:05.401Z,3.60
2023-02-17T18:06:38.511Z,3.93
2023-02-17T18:09:10.872Z,3.13
2023-02-17T18:11:40.684Z,4.03
2023-02-17T18:14:13.868Z,3.87
2023-02-17T18:16:45.232Z,4.57
2023-02-17T18:19:14.242Z,3.90
2023-02-17T18:21:42.463Z,3.40
2023-02-17T18:24:11.032Z,4.30
2023-02-17T18:26:39.169Z,3.10
2023-02-17T18:29:07.188Z,3.77
2023-02-17T18:31:35.304Z,4.33
2023-02-17T18:34:05.136Z,3.83
2023-02-17T18:36:33.232Z,4.00
2023-02-17T18:39:01.233Z,4.07
2023-02-17T18:41:30.768Z,3.63
2023-02-17T18:44:01.291Z,3.87
2023-02-17T18:46:29.585Z,3.93
2023-02-17T18:48:58.093Z,3.97
2023-02-17T18:51:27.709Z,3.60
2023-02-17T18:53:56.501Z,3.53
2023-02-17T18:56:26.904Z,3.57
2023-02-17T18:58:56.152Z,4.20
2023-02-17T19:01:26.161Z,3.90
2023-02-17T19:03:54.230Z,4.17
2023-02-17T19:06:24.740Z,4.13
2023-02-17T19:08:54.698Z,4.37
2023-02-17T19:11:24.155Z,3.70
2023-02-17T19:13:53.131Z,3.83
2023-02-17T19:16:24.275Z,4.00
2023-02-17T19:18:52.865Z,4.10
2023-02-17T19:21:22.125Z,5.03
2023-02-17T19:23:50.209Z,3.73
2023-02-17T19:26:20.449Z,4.40
2023-02-17T19:28:49.025Z,3.90
2023-02-17T19:31:19.157Z,4.20
2023-02-17T19:33:47.854Z,4.50
2023-02-17T19:36:18.442Z,4.33
2023-02-17T19:38:47.101Z,4.60
2023-02-17T19:41:15.638Z,4.07
2023-02-17T19:43:45.735Z,4.17
2023-02-17T19:46:14.710Z,4.77
2023-02-17T19:48:43.157Z,3.83
2023-02-17T19:51:13.677Z,4.73
2023-02-17T19:53:42.936Z,4.33
2023-02-17T19:56:12.756Z,3.90
2023-02-17T19:58:41.679Z,4.10
2023-02-17T20:01:13.370Z,4.03
2023-02-17T20:03:41.571Z,3.87
2023-02-17T20:06:11.882Z,4.57
2023-02-17T20:08:40.488Z,4.20
2023-02-17T20:11:10.128Z,3.30
2023-02-17T20:13:45.722Z,4.30
2023-02-17T20:16:17.288Z,4.77
2023-02-17T20:18:47.429Z,4.70
2023-02-17T20:21:17.814Z,3.70
2023-02-17T20:23:45.989Z,4.80
2023-02-17T20:26:16.225Z,4.43
2023-02-17T20:28:44.430Z,5.23
2023-02-17T20:31:15.353Z,3.70
2023-02-17T20:33:43.475Z,3.70
2023-02-17T20:36:11.885Z,4.57
2023-02-17T20:38:40.240Z,3.50
2023-02-17T20:41:10.476Z,4.73
2023-02-17T20:43:38.969Z,3.17
2023-02-17T20:46:07.904Z,4.10
2023-02-17T20:48:37.435Z,3.80
2023-02-17T20:51:05.753Z,4.23
2023-02-17T20:53:33.882Z,3.67
2023-02-17T20:56:02.074Z,3.57
2023-02-17T20:58:30.130Z,4.03
2023-02-17T21:00:58.173Z,4.57
2023-02-17T21:03:26.212Z,3.90
2023-02-17T21:05:55.628Z,3.33
2023-02-17T21:08:23.636Z,4.60
2023-02-17T21:10:51.635Z,4.17
2023-02-17T21:13:19.727Z,3.63
2023-02-17T21:15:48.069Z,3.47
2023-02-17T21:18:16.639Z,4.37
2023-02-17T21:20:44.674Z,4.10
2023-02-17T21:23:14.062Z,3.90
2023-02-17T21:25:42.104Z,4.50
2023-02-17T21:28:10.073Z,3.77
2023-02-17T21:30:38.093Z,3.50
2023-02-17T21:33:06.151Z,3.97
2023-02-17T21:35:34.131Z,3.20
2023-02-17T21:38:02.180Z,3.80
2023-02-17T21:40:31.828Z,4.20
2023-02-17T21:43:17.242Z,3.90
2023-02-17T21:45:45.703Z,3.60
2023-02-17T21:48:13.919Z,3.40
2023-02-17T21:50:41.923Z,4.20
2023-02-17T21:53:09.957Z,3.27
2023-02-17T21:55:39.307Z,3.90
2023-02-17T21:58:07.315Z,3.67
2023-02-17T22:00:35.424Z,3.87
2023-02-17T22:03:03.483Z,4.70
2023-02-17T22:05:31.705Z,3.77
2023-02-17T22:07:59.695Z,3.77
2023-02-17T22:10:27.747Z,3.40
2023-02-17T22:12:57.109Z,3.57
2023-02-17T22:15:25.099Z,3.90
2023-02-17T22:17:53.088Z,3.33
2023-02-17T22:20:21.274Z,2.83
2023-02-17T22:22:49.357Z,3.87
2023-02-17T22:25:17.666Z,3.47
2023-02-17T22:27:45.712Z,3.13
2023-02-17T22:30:15.497Z,3.53
2023-02-17T22:32:43.871Z,3.70
2023-02-17T22:35:12.391Z,4.00
2023-02-17T22:37:40.492Z,4.40
2023-02-17T22:40:09.779Z,3.77
2023-02-17T22:42:37.772Z,3.50
2023-02-17T22:45:07.153Z,4.10
2023-02-17T22:47:36.624Z,4.23
2023-02-17T22:50:05.414Z,4.17
2023-02-17T22:52:33.608Z,3.97
2023-02-17T22:55:01.781Z,3.10
2023-02-17T22:57:29.745Z,3.30
2023-02-17T22:59:57.756Z,3.43
2023-02-17T23:02:25.789Z,4.17
2023-02-17T23:04:55.140Z,3.47
2023-02-17T23:07:23.567Z,3.50
2023-02-17T23:09:51.712Z,4.20
2023-02-17T23:12:20.132Z,3.97
2023-02-17T23:14:48.125Z,3.80
2023-02-17T23:17:16.471Z,3.63
2023-02-17T23:19:44.504Z,3.50
2023-02-17T23:22:16.615Z,3.23
2023-02-17T23:24:45.088Z,3.90
2023-02-17T23:27:13.628Z,3.70
2023-02-17T23:29:42.876Z,4.47
2023-02-17T23:32:11.107Z,3.53
2023-02-17T23:34:40.262Z,3.17
2023-02-17T23:37:08.300Z,3.03
2023-02-17T23:39:39.184Z,4.07
2023-02-17T23:42:07.493Z,3.17
2023-02-17T23:44:35.518Z,2.70
2023-02-17T23:47:04.262Z,3.73
2023-02-17T23:49:32.267Z,3.30
2023-02-17T23:52:00.620Z,3.53
2023-02-17T23:54:28.819Z,3.53
2023-02-17T23:56:58.172Z,3.43
2023-02-17T23:59:26.191Z,3.30
